sensor_id;sensor_type;location;lat;lon;timestamp;P1;durP1;ratioP1;P2;durP2;ratioP2
70761;SDS011;58360;0.000;0.000;2023-04-02T00:11:42;17.60;;;12.18;;
70761;SDS011;58360;0.000;0.000;2023-04-02T00:14:32;16.38;;;12.10;;
70761;SDS011;58360;0.000;0.000;2023-04-02T00:16:58;16.17;;;10.57;;
70761;SDS011;58360;0.000;0.000;2023-04-02T00:22:04;16.40;;;9.80;;
70761;SDS011;58360;0.000;0.000;2023-04-02T00:24:31;14.50;;;9.38;;
70761;SDS011;58360;0.000;0.000;2023-04-02T00:26:57;16.95;;;11.10;;
70761;SDS011;58360;0.000;0.000;2023-04-02T00:29:24;14.85;;;10.10;;
70761;SDS011;58360;0.000;0.000;2023-04-02T00:31:50;12.02;;;9.20;;
70761;SDS011;58360;0.000;0.000;2023-04-02T00:34:31;16.02;;;12.15;;
70761;SDS011;58360;0.000;0.000;2023-04-02T00:37:00;14.75;;;10.32;;
70761;SDS011;58360;0.000;0.000;2023-04-02T00:39:27;13.77;;;9.70;;
70761;SDS011;58360;0.000;0.000;2023-04-02T00:41:57;13.60;;;9.52;;
70761;SDS011;58360;0.000;0.000;2023-04-02T00:44:30;13.85;;;9.68;;
70761;SDS011;58360;0.000;0.000;2023-04-02T00:46:58;12.00;;;8.90;;
70761;SDS011;58360;0.000;0.000;2023-04-02T00:49:35;13.88;;;10.27;;
70761;SDS011;58360;0.000;0.000;2023-04-02T00:54:33;14.00;;;9.85;;
70761;SDS011;58360;0.000;0.000;2023-04-02T00:57:27;14.90;;;10.77;;
70761;SDS011;58360;0.000;0.000;2023-04-02T00:59:58;15.90;;;9.23;;
70761;SDS011;58360;0.000;0.000;2023-04-02T01:06:14;15.32;;;10.98;;
70761;SDS011;58360;0.000;0.000;2023-04-02T01:14:24;16.90;;;12.27;;
70761;SDS011;58360;0.000;0.000;2023-04-02T01:16:59;14.82;;;10.23;;
70761;SDS011;58360;0.000;0.000;2023-04-02T01:22:44;14.68;;;10.82;;
70761;SDS011;58360;0.000;0.000;2023-04-02T01:25:52;13.02;;;9.35;;
70761;SDS011;58360;0.000;0.000;2023-04-02T01:33:51;13.80;;;8.88;;
70761;SDS011;58360;0.000;0.000;2023-04-02T01:39:29;15.20;;;10.98;;
70761;SDS011;58360;0.000;0.000;2023-04-02T01:44:46;14.05;;;10.20;;
70761;SDS011;58360;0.000;0.000;2023-04-02T01:47:15;16.25;;;11.18;;
70761;SDS011;58360;0.000;0.000;2023-04-02T01:49:44;15.18;;;10.77;;
70761;SDS011;58360;0.000;0.000;2023-04-02T01:52:15;20.15;;;11.13;;
70761;SDS011;58360;0.000;0.000;2023-04-02T01:54:43;19.98;;;12.68;;
70761;SDS011;58360;0.000;0.000;2023-04-02T01:57:11;16.27;;;10.68;;
70761;SDS011;58360;0.000;0.000;2023-04-02T01:59:37;13.10;;;8.75;;
70761;SDS011;58360;0.000;0.000;2023-04-02T02:02:13;15.05;;;11.00;;
70761;SDS011;58360;0.000;0.000;2023-04-02T02:04:39;16.00;;;12.20;;
70761;SDS011;58360;0.000;0.000;2023-04-02T02:07:09;17.13;;;11.18;;
70761;SDS011;58360;0.000;0.000;2023-04-02T02:09:38;18.23;;;11.30;;
70761;SDS011;58360;0.000;0.000;2023-04-02T02:12:05;15.60;;;11.02;;
70761;SDS011;58360;0.000;0.000;2023-04-02T02:14:31;17.67;;;12.55;;
70761;SDS011;58360;0.000;0.000;2023-04-02T02:16:58;19.27;;;12.88;;
70761;SDS011;58360;0.000;0.000;2023-04-02T02:19:27;15.65;;;11.68;;
70761;SDS011;58360;0.000;0.000;2023-04-02T02:21:56;15.75;;;11.77;;
70761;SDS011;58360;0.000;0.000;2023-04-02T02:24:42;17.55;;;12.50;;
70761;SDS011;58360;0.000;0.000;2023-04-02T02:29:58;15.07;;;11.20;;
70761;SDS011;58360;0.000;0.000;2023-04-02T02:32:30;18.42;;;13.45;;
70761;SDS011;58360;0.000;0.000;2023-04-02T02:35:01;20.35;;;12.93;;
70761;SDS011;58360;0.000;0.000;2023-04-02T02:37:42;18.70;;;13.60;;
70761;SDS011;58360;0.000;0.000;2023-04-02T02:40:11;20.02;;;14.60;;
70761;SDS011;58360;0.000;0.000;2023-04-02T02:42:46;21.75;;;14.85;;
70761;SDS011;58360;0.000;0.000;2023-04-02T02:45:20;20.50;;;13.57;;
70761;SDS011;58360;0.000;0.000;2023-04-02T02:47:49;17.83;;;13.00;;
70761;SDS011;58360;0.000;0.000;2023-04-02T02:50:18;17.00;;;11.93;;
70761;SDS011;58360;0.000;0.000;2023-04-02T02:52:50;18.98;;;13.65;;
70761;SDS011;58360;0.000;0.000;2023-04-02T02:55:22;17.75;;;12.70;;
70761;SDS011;58360;0.000;0.000;2023-04-02T02:58:00;21.95;;;13.63;;
70761;SDS011;58360;0.000;0.000;2023-04-02T03:00:36;23.52;;;15.90;;
70761;SDS011;58360;0.000;0.000;2023-04-02T03:03:06;21.85;;;14.98;;
70761;SDS011;58360;0.000;0.000;2023-04-02T03:05:36;20.13;;;13.65;;
70761;SDS011;58360;0.000;0.000;2023-04-02T03:08:03;19.58;;;15.30;;
70761;SDS011;58360;0.000;0.000;2023-04-02T03:10:36;18.73;;;13.30;;
70761;SDS011;58360;0.000;0.000;2023-04-02T03:13:19;20.67;;;14.32;;
70761;SDS011;58360;0.000;0.000;2023-04-02T03:18:55;24.35;;;14.75;;
70761;SDS011;58360;0.000;0.000;2023-04-02T03:22:10;23.35;;;15.98;;
70761;SDS011;58360;0.000;0.000;2023-04-02T03:27:36;20.63;;;16.20;;
70761;SDS011;58360;0.000;0.000;2023-04-02T03:32:53;24.02;;;15.25;;
70761;SDS011;58360;0.000;0.000;2023-04-02T03:35:30;19.45;;;13.60;;
70761;SDS011;58360;0.000;0.000;2023-04-02T03:38:01;19.75;;;14.82;;
70761;SDS011;58360;0.000;0.000;2023-04-02T03:40:38;22.48;;;14.57;;
70761;SDS011;58360;0.000;0.000;2023-04-02T03:43:42;22.83;;;14.88;;
70761;SDS011;58360;0.000;0.000;2023-04-02T03:46:30;18.55;;;13.73;;
70761;SDS011;58360;0.000;0.000;2023-04-02T03:49:06;18.33;;;12.90;;
70761;SDS011;58360;0.000;0.000;2023-04-02T03:51:58;20.23;;;14.23;;
70761;SDS011;58360;0.000;0.000;2023-04-02T03:54:28;21.88;;;14.93;;
70761;SDS011;58360;0.000;0.000;2023-04-02T03:56:55;22.20;;;15.55;;
70761;SDS011;58360;0.000;0.000;2023-04-02T03:59:42;21.58;;;14.45;;
70761;SDS011;58360;0.000;0.000;2023-04-02T04:04:40;20.08;;;13.38;;
70761;SDS011;58360;0.000;0.000;2023-04-02T04:07:10;19.92;;;13.57;;
70761;SDS011;58360;0.000;0.000;2023-04-02T04:09:44;23.40;;;15.55;;
70761;SDS011;58360;0.000;0.000;2023-04-02T04:15:23;19.58;;;14.52;;
70761;SDS011;58360;0.000;0.000;2023-04-02T04:17:59;21.30;;;14.83;;
70761;SDS011;58360;0.000;0.000;2023-04-02T04:20:39;22.55;;;15.27;;
70761;SDS011;58360;0.000;0.000;2023-04-02T04:23:33;23.95;;;14.90;;
70761;SDS011;58360;0.000;0.000;2023-04-02T04:26:06;22.75;;;16.38;;
70761;SDS011;58360;0.000;0.000;2023-04-02T04:31:32;22.15;;;14.68;;
70761;SDS011;58360;0.000;0.000;2023-04-02T04:34:05;23.83;;;14.93;;
70761;SDS011;58360;0.000;0.000;2023-04-02T04:36:50;19.30;;;12.88;;
70761;SDS011;58360;0.000;0.000;2023-04-02T04:39:23;18.83;;;14.40;;
70761;SDS011;58360;0.000;0.000;2023-04-02T04:41:55;20.23;;;13.55;;
70761;SDS011;58360;0.000;0.000;2023-04-02T04:44:48;18.83;;;12.50;;
70761;SDS011;58360;0.000;0.000;2023-04-02T04:53:04;23.63;;;16.05;;
70761;SDS011;58360;0.000;0.000;2023-04-02T04:58:21;19.25;;;13.98;;
70761;SDS011;58360;0.000;0.000;2023-04-02T05:01:02;25.15;;;15.82;;
70761;SDS011;58360;0.000;0.000;2023-04-02T05:06:33;22.13;;;13.32;;
70761;SDS011;58360;0.000;0.000;2023-04-02T05:10:06;18.75;;;12.57;;
70761;SDS011;58360;0.000;0.000;2023-04-02T05:12:20;24.23;;;13.65;;
70761;SDS011;58360;0.000;0.000;2023-04-02T05:17:26;19.88;;;12.65;;
70761;SDS011;58360;0.000;0.000;2023-04-02T05:20:33;18.23;;;13.50;;
70761;SDS011;58360;0.000;0.000;2023-04-02T05:23:09;21.00;;;14.02;;
70761;SDS011;58360;0.000;0.000;2023-04-02T05:29:13;23.70;;;14.50;;
70761;SDS011;58360;0.000;0.000;2023-04-02T05:31:44;21.35;;;14.95;;
70761;SDS011;58360;0.000;0.000;2023-04-02T05:34:22;25.02;;;17.67;;
70761;SDS011;58360;0.000;0.000;2023-04-02T05:36:53;33.40;;;21.80;;
70761;SDS011;58360;0.000;0.000;2023-04-02T05:39:23;26.40;;;17.10;;
70761;SDS011;58360;0.000;0.000;2023-04-02T05:42:03;26.45;;;16.80;;
70761;SDS011;58360;0.000;0.000;2023-04-02T05:44:32;25.40;;;15.02;;
70761;SDS011;58360;0.000;0.000;2023-04-02T05:50:09;18.98;;;14.07;;
70761;SDS011;58360;0.000;0.000;2023-04-02T05:52:47;18.67;;;13.23;;
70761;SDS011;58360;0.000;0.000;2023-04-02T05:57:45;19.25;;;14.25;;
70761;SDS011;58360;0.000;0.000;2023-04-02T06:00:40;27.90;;;16.88;;
70761;SDS011;58360;0.000;0.000;2023-04-02T06:03:30;17.83;;;12.32;;
70761;SDS011;58360;0.000;0.000;2023-04-02T06:06:11;18.55;;;12.52;;
70761;SDS011;58360;0.000;0.000;2023-04-02T06:08:43;16.95;;;12.40;;
70761;SDS011;58360;0.000;0.000;2023-04-02T06:11:21;20.27;;;14.57;;
70761;SDS011;58360;0.000;0.000;2023-04-02T06:13:53;19.10;;;12.82;;
70761;SDS011;58360;0.000;0.000;2023-04-02T06:16:18;22.10;;;15.25;;
70761;SDS011;58360;0.000;0.000;2023-04-02T06:18:49;18.73;;;12.90;;
70761;SDS011;58360;0.000;0.000;2023-04-02T06:21:14;17.92;;;13.23;;
70761;SDS011;58360;0.000;0.000;2023-04-02T06:23:46;21.63;;;14.15;;
70761;SDS011;58360;0.000;0.000;2023-04-02T06:26:24;19.35;;;13.88;;
70761;SDS011;58360;0.000;0.000;2023-04-02T06:32:02;25.70;;;16.67;;
70761;SDS011;58360;0.000;0.000;2023-04-02T06:34:31;23.30;;;14.40;;
70761;SDS011;58360;0.000;0.000;2023-04-02T06:36:58;23.67;;;13.55;;
70761;SDS011;58360;0.000;0.000;2023-04-02T06:39:27;16.63;;;12.43;;
70761;SDS011;58360;0.000;0.000;2023-04-02T06:42:03;20.50;;;13.98;;
70761;SDS011;58360;0.000;0.000;2023-04-02T06:44:37;20.63;;;13.98;;
70761;SDS011;58360;0.000;0.000;2023-04-02T06:47:49;23.58;;;13.40;;
70761;SDS011;58360;0.000;0.000;2023-04-02T06:52:52;19.73;;;12.50;;
70761;SDS011;58360;0.000;0.000;2023-04-02T07:00:48;18.77;;;13.55;;
70761;SDS011;58360;0.000;0.000;2023-04-02T07:03:15;18.05;;;12.93;;
70761;SDS011;58360;0.000;0.000;2023-04-02T07:05:47;20.35;;;12.07;;
70761;SDS011;58360;0.000;0.000;2023-04-02T07:08:13;25.15;;;16.40;;
70761;SDS011;58360;0.000;0.000;2023-04-02T07:10:38;19.70;;;13.13;;
70761;SDS011;58360;0.000;0.000;2023-04-02T07:13:04;18.42;;;12.77;;
70761;SDS011;58360;0.000;0.000;2023-04-02T07:15:30;17.42;;;11.18;;
70761;SDS011;58360;0.000;0.000;2023-04-02T07:17:57;17.10;;;12.70;;
70761;SDS011;58360;0.000;0.000;2023-04-02T07:20:35;20.77;;;12.80;;
70761;SDS011;58360;0.000;0.000;2023-04-02T07:23:01;20.77;;;13.10;;
70761;SDS011;58360;0.000;0.000;2023-04-02T07:25:33;19.67;;;13.68;;
70761;SDS011;58360;0.000;0.000;2023-04-02T07:28:00;20.83;;;13.15;;
70761;SDS011;58360;0.000;0.000;2023-04-02T07:30:25;19.05;;;13.52;;
70761;SDS011;58360;0.000;0.000;2023-04-02T07:32:51;22.50;;;14.05;;
70761;SDS011;58360;0.000;0.000;2023-04-02T07:35:17;24.13;;;15.15;;
70761;SDS011;58360;0.000;0.000;2023-04-02T07:37:42;20.45;;;13.93;;
70761;SDS011;58360;0.000;0.000;2023-04-02T07:40:18;21.60;;;14.57;;
70761;SDS011;58360;0.000;0.000;2023-04-02T07:42:46;33.85;;;23.92;;
70761;SDS011;58360;0.000;0.000;2023-04-02T07:45:12;27.73;;;19.40;;
70761;SDS011;58360;0.000;0.000;2023-04-02T07:47:38;58.13;;;33.38;;
70761;SDS011;58360;0.000;0.000;2023-04-02T07:50:06;19.65;;;12.90;;
70761;SDS011;58360;0.000;0.000;2023-04-02T07:52:33;18.02;;;12.95;;
70761;SDS011;58360;0.000;0.000;2023-04-02T07:55:03;19.63;;;13.57;;
70761;SDS011;58360;0.000;0.000;2023-04-02T07:57:28;24.80;;;15.55;;
70761;SDS011;58360;0.000;0.000;2023-04-02T07:59:54;32.95;;;19.73;;
70761;SDS011;58360;0.000;0.000;2023-04-02T08:02:21;21.52;;;15.43;;
70761;SDS011;58360;0.000;0.000;2023-04-02T08:04:48;22.58;;;16.25;;
70761;SDS011;58360;0.000;0.000;2023-04-02T08:07:15;22.40;;;12.80;;
70761;SDS011;58360;0.000;0.000;2023-04-02T08:09:42;23.92;;;16.83;;
70761;SDS011;58360;0.000;0.000;2023-04-02T08:12:10;20.25;;;12.60;;
70761;SDS011;58360;0.000;0.000;2023-04-02T08:14:37;26.00;;;18.15;;
70761;SDS011;58360;0.000;0.000;2023-04-02T08:17:03;21.20;;;14.77;;
70761;SDS011;58360;0.000;0.000;2023-04-02T08:19:29;24.25;;;13.35;;
70761;SDS011;58360;0.000;0.000;2023-04-02T08:21:55;23.73;;;13.50;;
70761;SDS011;58360;0.000;0.000;2023-04-02T08:24:21;21.40;;;14.25;;
70761;SDS011;58360;0.000;0.000;2023-04-02T08:26:48;22.15;;;13.38;;
70761;SDS011;58360;0.000;0.000;2023-04-02T08:29:15;21.55;;;14.55;;
70761;SDS011;58360;0.000;0.000;2023-04-02T08:31:41;17.27;;;13.35;;
70761;SDS011;58360;0.000;0.000;2023-04-02T08:34:06;19.23;;;13.55;;
70761;SDS011;58360;0.000;0.000;2023-04-02T08:36:33;16.85;;;11.48;;
70761;SDS011;58360;0.000;0.000;2023-04-02T08:39:02;15.05;;;9.45;;
70761;SDS011;58360;0.000;0.000;2023-04-02T08:41:30;19.17;;;11.80;;
70761;SDS011;58360;0.000;0.000;2023-04-02T08:47:07;14.55;;;9.48;;
70761;SDS011;58360;0.000;0.000;2023-04-02T08:49:50;12.43;;;9.20;;
70761;SDS011;58360;0.000;0.000;2023-04-02T08:52:27;12.63;;;8.77;;
70761;SDS011;58360;0.000;0.000;2023-04-02T08:54:59;11.90;;;8.48;;
70761;SDS011;58360;0.000;0.000;2023-04-02T08:57:46;12.98;;;8.80;;
70761;SDS011;58360;0.000;0.000;2023-04-02T09:00:26;13.00;;;8.23;;
70761;SDS011;58360;0.000;0.000;2023-04-02T09:05:44;13.00;;;8.20;;
70761;SDS011;58360;0.000;0.000;2023-04-02T09:08:20;10.48;;;7.50;;
70761;SDS011;58360;0.000;0.000;2023-04-02T09:13:23;15.13;;;8.10;;
70761;SDS011;58360;0.000;0.000;2023-04-02T09:15:56;10.20;;;7.57;;
70761;SDS011;58360;0.000;0.000;2023-04-02T09:18:31;15.23;;;7.90;;
70761;SDS011;58360;0.000;0.000;2023-04-02T09:20:57;12.13;;;7.82;;
70761;SDS011;58360;0.000;0.000;2023-04-02T09:23:27;13.48;;;7.72;;
70761;SDS011;58360;0.000;0.000;2023-04-02T09:25:53;14.15;;;8.05;;
70761;SDS011;58360;0.000;0.000;2023-04-02T09:28:24;11.02;;;7.68;;
70761;SDS011;58360;0.000;0.000;2023-04-02T09:33:54;16.23;;;6.15;;
70761;SDS011;58360;0.000;0.000;2023-04-02T09:41:31;9.55;;;5.88;;
70761;SDS011;58360;0.000;0.000;2023-04-02T09:49:24;9.45;;;4.70;;
70761;SDS011;58360;0.000;0.000;2023-04-02T09:57:38;8.52;;;5.07;;
70761;SDS011;58360;0.000;0.000;2023-04-02T10:02:35;8.45;;;5.03;;
70761;SDS011;58360;0.000;0.000;2023-04-02T10:05:02;7.50;;;4.43;;
70761;SDS011;58360;0.000;0.000;2023-04-02T10:07:43;9.40;;;4.22;;
70761;SDS011;58360;0.000;0.000;2023-04-02T10:12:51;7.32;;;3.63;;
70761;SDS011;58360;0.000;0.000;2023-04-02T10:15:46;8.95;;;4.20;;
70761;SDS011;58360;0.000;0.000;2023-04-02T10:21:12;8.10;;;4.25;;
70761;SDS011;58360;0.000;0.000;2023-04-02T10:34:56;9.10;;;4.22;;
70761;SDS011;58360;0.000;0.000;2023-04-02T10:40:09;8.32;;;4.60;;
70761;SDS011;58360;0.000;0.000;2023-04-02T10:45:49;7.63;;;3.67;;
70761;SDS011;58360;0.000;0.000;2023-04-02T10:49:18;7.95;;;4.03;;
70761;SDS011;58360;0.000;0.000;2023-04-02T10:51:39;6.57;;;3.88;;
70761;SDS011;58360;0.000;0.000;2023-04-02T10:54:16;7.95;;;3.55;;
70761;SDS011;58360;0.000;0.000;2023-04-02T10:57:05;13.07;;;5.10;;
70761;SDS011;58360;0.000;0.000;2023-04-02T10:59:54;10.15;;;5.38;;
70761;SDS011;58360;0.000;0.000;2023-04-02T11:10:38;8.02;;;3.78;;
70761;SDS011;58360;0.000;0.000;2023-04-02T11:13:12;6.95;;;3.30;;
70761;SDS011;58360;0.000;0.000;2023-04-02T11:15:52;7.82;;;3.60;;
70761;SDS011;58360;0.000;0.000;2023-04-02T11:18:22;7.53;;;3.45;;
70761;SDS011;58360;0.000;0.000;2023-04-02T11:20:55;10.05;;;5.05;;
70761;SDS011;58360;0.000;0.000;2023-04-02T11:23:26;14.70;;;7.15;;
70761;SDS011;58360;0.000;0.000;2023-04-02T11:29:05;6.22;;;4.07;;
70761;SDS011;58360;0.000;0.000;2023-04-02T11:31:34;9.13;;;4.53;;
70761;SDS011;58360;0.000;0.000;2023-04-02T11:34:00;7.88;;;4.13;;
70761;SDS011;58360;0.000;0.000;2023-04-02T11:39:14;10.25;;;5.03;;
70761;SDS011;58360;0.000;0.000;2023-04-02T11:44:43;16.08;;;7.00;;
70761;SDS011;58360;0.000;0.000;2023-04-02T11:54:57;10.30;;;7.18;;
70761;SDS011;58360;0.000;0.000;2023-04-02T12:02:59;11.63;;;5.03;;
70761;SDS011;58360;0.000;0.000;2023-04-02T12:13:18;11.20;;;4.07;;
70761;SDS011;58360;0.000;0.000;2023-04-02T12:15:46;10.60;;;4.60;;
70761;SDS011;58360;0.000;0.000;2023-04-02T12:20:38;9.05;;;4.43;;
70761;SDS011;58360;0.000;0.000;2023-04-02T12:23:04;11.68;;;3.90;;
70761;SDS011;58360;0.000;0.000;2023-04-02T12:28:14;8.75;;;4.68;;
70761;SDS011;58360;0.000;0.000;2023-04-02T12:30:45;14.85;;;7.10;;
70761;SDS011;58360;0.000;0.000;2023-04-02T12:35:47;18.60;;;8.25;;
70761;SDS011;58360;0.000;0.000;2023-04-02T12:38:25;27.73;;;13.18;;
70761;SDS011;58360;0.000;0.000;2023-04-02T12:40:53;22.30;;;8.95;;
70761;SDS011;58360;0.000;0.000;2023-04-02T12:43:28;18.83;;;9.63;;
70761;SDS011;58360;0.000;0.000;2023-04-02T12:46:02;33.33;;;13.77;;
70761;SDS011;58360;0.000;0.000;2023-04-02T12:50:57;10.20;;;4.70;;
70761;SDS011;58360;0.000;0.000;2023-04-02T12:55:53;10.63;;;4.32;;
70761;SDS011;58360;0.000;0.000;2023-04-02T13:01:34;10.73;;;4.72;;
70761;SDS011;58360;0.000;0.000;2023-04-02T13:03:59;7.05;;;3.88;;
70761;SDS011;58360;0.000;0.000;2023-04-02T13:06:36;7.35;;;3.72;;
70761;SDS011;58360;0.000;0.000;2023-04-02T13:09:04;12.68;;;4.70;;
70761;SDS011;58360;0.000;0.000;2023-04-02T13:11:38;8.13;;;4.43;;
70761;SDS011;58360;0.000;0.000;2023-04-02T13:14:06;7.28;;;4.00;;
70761;SDS011;58360;0.000;0.000;2023-04-02T13:16:40;6.10;;;3.28;;
70761;SDS011;58360;0.000;0.000;2023-04-02T13:21:41;11.75;;;5.10;;
70761;SDS011;58360;0.000;0.000;2023-04-02T13:24:27;12.43;;;3.55;;
70761;SDS011;58360;0.000;0.000;2023-04-02T13:26:56;10.60;;;4.32;;
70761;SDS011;58360;0.000;0.000;2023-04-02T13:31:54;6.55;;;3.20;;
70761;SDS011;58360;0.000;0.000;2023-04-02T13:34:23;7.78;;;3.08;;
70761;SDS011;58360;0.000;0.000;2023-04-02T13:36:49;7.45;;;3.67;;
70761;SDS011;58360;0.000;0.000;2023-04-02T13:39:14;9.10;;;4.07;;
70761;SDS011;58360;0.000;0.000;2023-04-02T13:41:44;11.35;;;4.07;;
70761;SDS011;58360;0.000;0.000;2023-04-02T13:47:01;7.65;;;3.45;;
70761;SDS011;58360;0.000;0.000;2023-04-02T13:49:26;7.13;;;3.55;;
70761;SDS011;58360;0.000;0.000;2023-04-02T13:51:56;8.13;;;3.97;;
70761;SDS011;58360;0.000;0.000;2023-04-02T13:54:31;6.97;;;4.30;;
70761;SDS011;58360;0.000;0.000;2023-04-02T13:57:05;12.93;;;5.30;;
70761;SDS011;58360;0.000;0.000;2023-04-02T13:59:31;8.68;;;3.92;;
70761;SDS011;58360;0.000;0.000;2023-04-02T14:01:58;6.28;;;3.50;;
70761;SDS011;58360;0.000;0.000;2023-04-02T14:04:31;12.18;;;4.03;;
70761;SDS011;58360;0.000;0.000;2023-04-02T14:09:59;11.73;;;6.03;;
70761;SDS011;58360;0.000;0.000;2023-04-02T14:31:53;10.93;;;3.85;;
70761;SDS011;58360;0.000;0.000;2023-04-02T14:34:32;7.40;;;3.60;;
70761;SDS011;58360;0.000;0.000;2023-04-02T14:42:56;14.20;;;4.88;;
70761;SDS011;58360;0.000;0.000;2023-04-02T14:48:32;8.00;;;3.35;;
70761;SDS011;58360;0.000;0.000;2023-04-02T14:51:13;5.28;;;2.90;;
70761;SDS011;58360;0.000;0.000;2023-04-02T14:56:32;5.10;;;2.88;;
70761;SDS011;58360;0.000;0.000;2023-04-02T14:59:11;7.25;;;2.88;;
70761;SDS011;58360;0.000;0.000;2023-04-02T15:02:06;5.95;;;2.25;;
70761;SDS011;58360;0.000;0.000;2023-04-02T15:04:41;8.05;;;2.20;;
70761;SDS011;58360;0.000;0.000;2023-04-02T15:07:16;4.03;;;2.00;;
70761;SDS011;58360;0.000;0.000;2023-04-02T15:09:48;4.40;;;1.92;;
70761;SDS011;58360;0.000;0.000;2023-04-02T15:12:37;4.93;;;2.47;;
70761;SDS011;58360;0.000;0.000;2023-04-02T15:15:08;4.28;;;1.90;;
70761;SDS011;58360;0.000;0.000;2023-04-02T15:17:43;7.00;;;2.30;;
70761;SDS011;58360;0.000;0.000;2023-04-02T15:20:13;7.35;;;2.13;;
70761;SDS011;58360;0.000;0.000;2023-04-02T15:22:46;6.68;;;2.17;;
70761;SDS011;58360;0.000;0.000;2023-04-02T15:31:15;4.63;;;2.00;;
70761;SDS011;58360;0.000;0.000;2023-04-02T15:39:36;4.88;;;2.00;;
70761;SDS011;58360;0.000;0.000;2023-04-02T15:42:28;5.03;;;2.42;;
70761;SDS011;58360;0.000;0.000;2023-04-02T15:47:37;5.97;;;1.95;;
70761;SDS011;58360;0.000;0.000;2023-04-02T15:56:17;5.57;;;2.20;;
70761;SDS011;58360;0.000;0.000;2023-04-02T16:07:14;6.55;;;2.40;;
70761;SDS011;58360;0.000;0.000;2023-04-02T16:12:20;5.63;;;2.50;;
70761;SDS011;58360;0.000;0.000;2023-04-02T16:14:46;6.40;;;2.75;;
70761;SDS011;58360;0.000;0.000;2023-04-02T16:17:23;7.57;;;2.75;;
70761;SDS011;58360;0.000;0.000;2023-04-02T16:20:00;4.90;;;2.35;;
70761;SDS011;58360;0.000;0.000;2023-04-02T16:22:43;8.50;;;2.70;;
70761;SDS011;58360;0.000;0.000;2023-04-02T16:25:18;5.63;;;2.38;;
70761;SDS011;58360;0.000;0.000;2023-04-02T16:27:56;8.70;;;2.80;;
70761;SDS011;58360;0.000;0.000;2023-04-02T16:36:12;8.40;;;2.78;;
70761;SDS011;58360;0.000;0.000;2023-04-02T16:44:19;5.68;;;2.42;;
70761;SDS011;58360;0.000;0.000;2023-04-02T16:46:53;8.53;;;2.83;;
70761;SDS011;58360;0.000;0.000;2023-04-02T16:52:11;7.03;;;2.97;;
70761;SDS011;58360;0.000;0.000;2023-04-02T17:00:41;8.05;;;2.90;;
70761;SDS011;58360;0.000;0.000;2023-04-02T17:03:49;6.45;;;2.80;;
70761;SDS011;58360;0.000;0.000;2023-04-02T17:06:07;6.95;;;2.75;;
70761;SDS011;58360;0.000;0.000;2023-04-02T17:08:43;7.68;;;3.17;;
70761;SDS011;58360;0.000;0.000;2023-04-02T17:11:27;8.48;;;2.80;;
70761;SDS011;58360;0.000;0.000;2023-04-02T17:14:42;6.22;;;2.97;;
70761;SDS011;58360;0.000;0.000;2023-04-02T17:17:30;7.05;;;3.15;;
70761;SDS011;58360;0.000;0.000;2023-04-02T17:19:56;6.32;;;3.10;;
70761;SDS011;58360;0.000;0.000;2023-04-02T17:22:24;8.77;;;3.25;;
70761;SDS011;58360;0.000;0.000;2023-04-02T17:24:55;8.63;;;3.97;;
70761;SDS011;58360;0.000;0.000;2023-04-02T17:27:31;7.45;;;2.78;;
70761;SDS011;58360;0.000;0.000;2023-04-02T17:30:12;6.60;;;3.17;;
70761;SDS011;58360;0.000;0.000;2023-04-02T17:32:43;5.95;;;2.85;;
70761;SDS011;58360;0.000;0.000;2023-04-02T17:38:11;8.32;;;3.30;;
70761;SDS011;58360;0.000;0.000;2023-04-02T17:46:34;10.52;;;3.25;;
70761;SDS011;58360;0.000;0.000;2023-04-02T17:52:12;9.07;;;3.03;;
70761;SDS011;58360;0.000;0.000;2023-04-02T18:05:44;7.85;;;3.58;;
70761;SDS011;58360;0.000;0.000;2023-04-02T18:08:29;9.70;;;4.28;;
70761;SDS011;58360;0.000;0.000;2023-04-02T18:11:30;11.93;;;3.20;;
70761;SDS011;58360;0.000;0.000;2023-04-02T18:16:51;7.07;;;3.70;;
70761;SDS011;58360;0.000;0.000;2023-04-02T18:30:20;9.77;;;4.10;;
70761;SDS011;58360;0.000;0.000;2023-04-02T18:35:50;7.85;;;3.53;;
70761;SDS011;58360;0.000;0.000;2023-04-02T18:38:43;9.73;;;3.72;;
70761;SDS011;58360;0.000;0.000;2023-04-02T18:48:58;11.65;;;6.20;;
70761;SDS011;58360;0.000;0.000;2023-04-02T18:51:31;11.90;;;4.97;;
70761;SDS011;58360;0.000;0.000;2023-04-02T18:57:07;11.15;;;5.15;;
70761;SDS011;58360;0.000;0.000;2023-04-02T19:02:52;9.90;;;3.78;;
70761;SDS011;58360;0.000;0.000;2023-04-02T19:10:36;10.10;;;4.15;;
70761;SDS011;58360;0.000;0.000;2023-04-02T19:13:16;9.02;;;4.10;;
70761;SDS011;58360;0.000;0.000;2023-04-02T19:26:43;11.10;;;4.50;;
70761;SDS011;58360;0.000;0.000;2023-04-02T19:32:34;16.30;;;4.88;;
70761;SDS011;58360;0.000;0.000;2023-04-02T19:35:19;19.25;;;8.88;;
70761;SDS011;58360;0.000;0.000;2023-04-02T19:40:45;8.32;;;4.43;;
70761;SDS011;58360;0.000;0.000;2023-04-02T19:43:18;15.57;;;4.90;;
70761;SDS011;58360;0.000;0.000;2023-04-02T19:45:45;17.38;;;4.70;;
70761;SDS011;58360;0.000;0.000;2023-04-02T19:48:14;7.72;;;4.28;;
70761;SDS011;58360;0.000;0.000;2023-04-02T19:50:44;11.13;;;5.43;;
70761;SDS011;58360;0.000;0.000;2023-04-02T19:53:11;12.15;;;6.28;;
70761;SDS011;58360;0.000;0.000;2023-04-02T19:55:38;10.93;;;4.68;;
70761;SDS011;58360;0.000;0.000;2023-04-02T19:58:05;7.65;;;4.50;;
70761;SDS011;58360;0.000;0.000;2023-04-02T20:00:30;9.52;;;4.15;;
70761;SDS011;58360;0.000;0.000;2023-04-02T20:02:57;9.80;;;4.90;;
70761;SDS011;58360;0.000;0.000;2023-04-02T20:05:23;9.68;;;4.80;;
70761;SDS011;58360;0.000;0.000;2023-04-02T20:07:48;9.65;;;5.28;;
70761;SDS011;58360;0.000;0.000;2023-04-02T20:10:14;11.18;;;5.40;;
70761;SDS011;58360;0.000;0.000;2023-04-02T20:12:40;11.07;;;5.60;;
70761;SDS011;58360;0.000;0.000;2023-04-02T20:15:06;9.98;;;5.20;;
70761;SDS011;58360;0.000;0.000;2023-04-02T20:17:32;12.98;;;5.53;;
70761;SDS011;58360;0.000;0.000;2023-04-02T20:19:57;14.27;;;8.15;;
70761;SDS011;58360;0.000;0.000;2023-04-02T20:22:23;16.65;;;7.53;;
70761;SDS011;58360;0.000;0.000;2023-04-02T20:24:49;14.90;;;6.70;;
70761;SDS011;58360;0.000;0.000;2023-04-02T20:27:15;12.77;;;5.00;;
70761;SDS011;58360;0.000;0.000;2023-04-02T20:29:41;11.38;;;4.97;;
70761;SDS011;58360;0.000;0.000;2023-04-02T20:32:07;9.02;;;4.95;;
70761;SDS011;58360;0.000;0.000;2023-04-02T20:34:33;13.25;;;6.15;;
70761;SDS011;58360;0.000;0.000;2023-04-02T20:37:00;18.00;;;8.30;;
70761;SDS011;58360;0.000;0.000;2023-04-02T20:39:26;14.15;;;7.22;;
70761;SDS011;58360;0.000;0.000;2023-04-02T20:41:52;13.80;;;6.18;;
70761;SDS011;58360;0.000;0.000;2023-04-02T20:44:18;15.85;;;5.90;;
70761;SDS011;58360;0.000;0.000;2023-04-02T20:46:44;17.42;;;6.50;;
70761;SDS011;58360;0.000;0.000;2023-04-02T20:49:10;12.00;;;6.55;;
70761;SDS011;58360;0.000;0.000;2023-04-02T20:51:36;12.18;;;6.10;;
70761;SDS011;58360;0.000;0.000;2023-04-02T20:54:01;11.05;;;5.95;;
70761;SDS011;58360;0.000;0.000;2023-04-02T20:56:27;16.90;;;6.85;;
70761;SDS011;58360;0.000;0.000;2023-04-02T20:58:54;19.58;;;6.90;;
70761;SDS011;58360;0.000;0.000;2023-04-02T21:01:21;13.25;;;7.00;;
70761;SDS011;58360;0.000;0.000;2023-04-02T21:03:52;12.50;;;6.30;;
70761;SDS011;58360;0.000;0.000;2023-04-02T21:06:20;13.18;;;6.55;;
70761;SDS011;58360;0.000;0.000;2023-04-02T21:08:47;17.77;;;7.57;;
70761;SDS011;58360;0.000;0.000;2023-04-02T21:11:14;13.55;;;6.80;;
70761;SDS011;58360;0.000;0.000;2023-04-02T21:13:40;13.63;;;7.57;;
70761;SDS011;58360;0.000;0.000;2023-04-02T21:16:15;14.93;;;7.38;;
70761;SDS011;58360;0.000;0.000;2023-04-02T21:18:47;12.85;;;6.85;;
70761;SDS011;58360;0.000;0.000;2023-04-02T21:21:14;18.98;;;7.40;;
70761;SDS011;58360;0.000;0.000;2023-04-02T21:23:42;15.55;;;7.80;;
70761;SDS011;58360;0.000;0.000;2023-04-02T21:26:13;12.95;;;6.82;;
70761;SDS011;58360;0.000;0.000;2023-04-02T21:28:40;15.68;;;7.18;;